sensor_id;sensor_type;location;lat;lon;timestamp;pressure;altitude;pressure_sealevel;temperature;humidity
60373;BME280;46216;52.220;5.134;2023-04-08T00:01:15;102484.84;;;9.41;100.00
60373;BME280;46216;52.220;5.134;2023-04-08T00:03:41;102489.47;;;9.36;100.00
60373;BME280;46216;52.220;5.134;2023-04-08T00:06:06;102488.84;;;9.30;100.00
60373;BME280;46216;52.220;5.134;2023-04-08T00:08:32;102498.75;;;9.26;100.00
60373;BME280;46216;52.220;5.134;2023-04-08T00:10:57;102491.84;;;9.22;100.00
60373;BME280;46216;52.220;5.134;2023-04-08T00:13:23;102492.91;;;9.18;100.00
60373;BME280;46216;52.220;5.134;2023-04-08T00:15:48;102498.22;;;9.18;100.00
60373;BME280;46216;52.220;5.134;2023-04-08T00:18:14;102500.06;;;9.16;100.00
60373;BME280;46216;52.220;5.134;2023-04-08T00:20:42;102502.91;;;9.11;100.00
60373;BME280;46216;52.220;5.134;2023-04-08T00:23:07;102491.53;;;9.08;100.00
60373;BME280;46216;52.220;5.134;2023-04-08T00:25:32;102494.44;;;9.02;100.00
60373;BME280;46216;52.220;5.134;2023-04-08T00:27:58;102492.75;;;8.99;100.00
60373;BME280;46216;52.220;5.134;2023-04-08T00:30:23;102493.81;;;8.95;100.00
60373;BME280;46216;52.220;5.134;2023-04-08T00:32:49;102485.13;;;8.90;100.00
60373;BME280;46216;52.220;5.134;2023-04-08T00:35:14;102490.59;;;8.87;100.00
60373;BME280;46216;52.220;5.134;2023-04-08T00:37:39;102500.41;;;8.85;100.00
60373;BME280;46216;52.220;5.134;2023-04-08T00:40:05;102492.63;;;8.80;100.00
60373;BME280;46216;52.220;5.134;2023-04-08T00:42:31;102497.31;;;8.73;100.00
60373;BME280;46216;52.220;5.134;2023-04-08T00:44:56;102504.53;;;8.70;100.00
60373;BME280;46216;52.220;5.134;2023-04-08T00:47:22;102499.25;;;8.68;100.00
60373;BME280;46216;52.220;5.134;2023-04-08T00:49:47;102506.50;;;8.65;100.00
60373;BME280;46216;52.220;5.134;2023-04-08T00:52:12;102506.50;;;8.65;100.00
60373;BME280;46216;52.220;5.134;2023-04-08T00:54:38;102509.44;;;8.57;100.00
60373;BME280;46216;52.220;5.134;2023-04-08T00:57:05;102506.81;;;8.56;100.00
60373;BME280;46216;52.220;5.134;2023-04-08T00:59:31;102503.25;;;8.57;100.00
60373;BME280;46216;52.220;5.134;2023-04-08T01:05:04;102506.72;;;8.59;100.00
60373;BME280;46216;52.220;5.134;2023-04-08T01:07:33;102507.56;;;8.59;100.00
60373;BME280;46216;52.220;5.134;2023-04-08T01:10:06;102503.16;;;8.60;100.00
60373;BME280;46216;52.220;5.134;2023-04-08T01:12:47;102510.06;;;8.64;100.00
60373;BME280;46216;52.220;5.134;2023-04-08T01:15:13;102509.16;;;8.65;100.00
60373;BME280;46216;52.220;5.134;2023-04-08T01:17:40;102510.06;;;8.64;100.00
60373;BME280;46216;52.220;5.134;2023-04-08T01:20:08;102510.88;;;8.66;100.00
60373;BME280;46216;52.220;5.134;2023-04-08T01:22:47;102512.66;;;8.65;100.00
60373;BME280;46216;52.220;5.134;2023-04-08T01:25:21;102512.78;;;8.62;100.00
60373;BME280;46216;52.220;5.134;2023-04-08T01:27:48;102515.31;;;8.65;100.00
60373;BME280;46216;52.220;5.134;2023-04-08T01:30:17;102519.84;;;8.63;100.00
60373;BME280;46216;52.220;5.134;2023-04-08T01:32:43;102522.50;;;8.63;100.00
60373;BME280;46216;52.220;5.134;2023-04-08T01:35:10;102522.53;;;8.62;100.00
60373;BME280;46216;52.220;5.134;2023-04-08T01:37:37;102529.66;;;8.61;100.00
60373;BME280;46216;52.220;5.134;2023-04-08T01:40:04;102520.81;;;8.61;100.00
60373;BME280;46216;52.220;5.134;2023-04-08T01:42:32;102520.09;;;8.56;100.00
60373;BME280;46216;52.220;5.134;2023-04-08T01:44:59;102519.22;;;8.57;100.00
60373;BME280;46216;52.220;5.134;2023-04-08T01:47:26;102521.91;;;8.55;100.00
60373;BME280;46216;52.220;5.134;2023-04-08T01:49:53;102530.81;;;8.54;100.00
60373;BME280;46216;52.220;5.134;2023-04-08T01:52:20;102521.91;;;8.55;100.00
60373;BME280;46216;52.220;5.134;2023-04-08T01:54:46;102526.44;;;8.53;100.00
60373;BME280;46216;52.220;5.134;2023-04-08T01:57:18;102524.63;;;8.53;100.00
60373;BME280;46216;52.220;5.134;2023-04-08T01:59:49;102526.34;;;8.55;100.00
60373;BME280;46216;52.220;5.134;2023-04-08T02:02:16;102523.59;;;8.58;100.00
60373;BME280;46216;52.220;5.134;2023-04-08T02:04:43;102528.97;;;8.56;100.00
60373;BME280;46216;52.220;5.134;2023-04-08T02:07:09;102528.91;;;8.58;100.00
60373;BME280;46216;52.220;5.134;2023-04-08T02:09:35;102526.25;;;8.58;100.00
60373;BME280;46216;52.220;5.134;2023-04-08T02:12:01;102521.91;;;8.55;100.00
60373;BME280;46216;52.220;5.134;2023-04-08T02:14:27;102528.91;;;8.58;100.00
60373;BME280;46216;52.220;5.134;2023-04-08T02:19:33;102531.34;;;8.64;100.00
60373;BME280;46216;52.220;5.134;2023-04-08T02:22:10;102524.13;;;8.67;100.00
60373;BME280;46216;52.220;5.134;2023-04-08T02:24:37;102532.03;;;8.69;100.00
60373;BME280;46216;52.220;5.134;2023-04-08T02:27:05;102523.06;;;8.71;100.00
60373;BME280;46216;52.220;5.134;2023-04-08T02:29:33;102527.41;;;8.74;100.00
60373;BME280;46216;52.220;5.134;2023-04-08T02:32:01;102530.00;;;8.75;100.00
60373;BME280;46216;52.220;5.134;2023-04-08T02:34:29;102530.00;;;8.75;100.00
60373;BME280;46216;52.220;5.134;2023-04-08T02:36:54;102531.78;;;8.75;100.00
60373;BME280;46216;52.220;5.134;2023-04-08T02:39:20;102531.00;;;8.73;100.00
60373;BME280;46216;52.220;5.134;2023-04-08T02:41:45;102531.16;;;8.68;100.00
60373;BME280;46216;52.220;5.134;2023-04-08T02:44:11;102534.78;;;8.66;100.00
60373;BME280;46216;52.220;5.134;2023-04-08T02:46:36;102539.34;;;8.62;100.00
60373;BME280;46216;52.220;5.134;2023-04-08T02:49:01;102541.25;;;8.59;100.00
60373;BME280;46216;52.220;5.134;2023-04-08T02:51:27;102542.19;;;8.58;100.00
60373;BME280;46216;52.220;5.134;2023-04-08T02:53:52;102543.06;;;8.58;100.00
60373;BME280;46216;52.220;5.134;2023-04-08T02:56:18;102549.13;;;8.62;100.00
60373;BME280;46216;52.220;5.134;2023-04-08T02:58:44;102550.88;;;8.63;100.00
60373;BME280;46216;52.220;5.134;2023-04-08T03:01:09;102547.41;;;8.61;100.00
60373;BME280;46216;52.220;5.134;2023-04-08T03:03:35;102544.66;;;8.62;100.00
60373;BME280;46216;52.220;5.134;2023-04-08T03:06:01;102547.28;;;8.64;100.00
60373;BME280;46216;52.220;5.134;2023-04-08T03:08:26;102549.09;;;8.63;100.00
60373;BME280;46216;52.220;5.134;2023-04-08T03:10:51;102547.28;;;8.64;100.00
60373;BME280;46216;52.220;5.134;2023-04-08T03:13:17;102550.91;;;8.61;100.00
60373;BME280;46216;52.220;5.134;2023-04-08T03:15:42;102550.09;;;8.59;100.00
60373;BME280;46216;52.220;5.134;2023-04-08T03:18:07;102555.38;;;8.61;100.00
60373;BME280;46216;52.220;5.134;2023-04-08T03:20:33;102549.13;;;8.62;100.00
60373;BME280;46216;52.220;5.134;2023-04-08T03:22:59;102551.00;;;8.60;100.00
60373;BME280;46216;52.220;5.134;2023-04-08T03:25:24;102550.16;;;8.58;100.00
60373;BME280;46216;52.220;5.134;2023-04-08T03:27:50;102554.56;;;8.59;100.00
60373;BME280;46216;52.220;5.134;2023-04-08T03:30:16;102552.00;;;8.56;100.00
60373;BME280;46216;52.220;5.134;2023-04-08T03:32:41;102558.22;;;8.56;100.00
60373;BME280;46216;52.220;5.134;2023-04-08T03:35:07;102558.34;;;8.51;100.00
60373;BME280;46216;52.220;5.134;2023-04-08T03:37:32;102552.34;;;8.46;100.00
60373;BME280;46216;52.220;5.134;2023-04-08T03:39:57;102554.16;;;8.46;100.00
60373;BME280;46216;52.220;5.134;2023-04-08T03:42:23;102555.00;;;8.46;100.00
60373;BME280;46216;52.220;5.134;2023-04-08T03:44:48;102564.72;;;8.47;100.00
60373;BME280;46216;52.220;5.134;2023-04-08T03:47:14;102560.34;;;8.46;100.00
60373;BME280;46216;52.220;5.134;2023-04-08T03:49:39;102563.03;;;8.45;100.00
60373;BME280;46216;52.220;5.134;2023-04-08T03:52:04;102564.66;;;8.49;100.00
60373;BME280;46216;52.220;5.134;2023-04-08T03:54:30;102570.75;;;8.52;100.00
60373;BME280;46216;52.220;5.134;2023-04-08T03:56:55;102569.09;;;8.48;100.00
60373;BME280;46216;52.220;5.134;2023-04-08T03:59:21;102570.91;;;8.48;100.00
60373;BME280;46216;52.220;5.134;2023-04-08T04:01:47;102571.06;;;8.43;100.00
60373;BME280;46216;52.220;5.134;2023-04-08T04:04:12;102567.66;;;8.40;100.00
60373;BME280;46216;52.220;5.134;2023-04-08T04:06:37;102563.25;;;8.39;100.00
60373;BME280;46216;52.220;5.134;2023-04-08T04:09:03;102576.41;;;8.42;100.00
60373;BME280;46216;52.220;5.134;2023-04-08T04:11:28;102571.19;;;8.40;100.00
60373;BME280;46216;52.220;5.134;2023-04-08T04:13:53;102577.25;;;8.44;100.00
60373;BME280;46216;52.220;5.134;2023-04-08T04:16:19;102576.28;;;8.46;100.00
60373;BME280;46216;52.220;5.134;2023-04-08T04:18:44;102583.31;;;8.47;100.00
60373;BME280;46216;52.220;5.134;2023-04-08T04:21:10;102580.72;;;8.46;100.00
60373;BME280;46216;52.220;5.134;2023-04-08T04:23:35;102583.53;;;8.41;100.00
60373;BME280;46216;52.220;5.134;2023-04-08T04:26:00;102589.91;;;8.36;100.00
60373;BME280;46216;52.220;5.134;2023-04-08T04:28:26;102590.97;;;8.30;100.00
60373;BME280;46216;52.220;5.134;2023-04-08T04:30:51;102598.03;;;8.31;100.00
60373;BME280;46216;52.220;5.134;2023-04-08T04:33:16;102595.66;;;8.23;100.00
60373;BME280;46216;52.220;5.134;2023-04-08T04:35:42;102597.72;;;8.15;100.00
60373;BME280;46216;52.220;5.134;2023-04-08T04:38:08;102601.47;;;8.08;100.00
60373;BME280;46216;52.220;5.134;2023-04-08T04:40:36;102607.00;;;8.02;100.00
60373;BME280;46216;52.220;5.134;2023-04-08T04:43:02;102610.06;;;7.90;100.00
60373;BME280;46216;52.220;5.134;2023-04-08T04:45:27;102604.06;;;7.85;100.00
60373;BME280;46216;52.220;5.134;2023-04-08T04:47:52;102607.91;;;7.74;100.00
60373;BME280;46216;52.220;5.134;2023-04-08T04:50:18;102616.22;;;7.64;100.00
60373;BME280;46216;52.220;5.134;2023-04-08T04:52:43;102618.34;;;7.52;100.00
60373;BME280;46216;52.220;5.134;2023-04-08T04:55:08;102616.88;;;7.42;100.00
60373;BME280;46216;52.220;5.134;2023-04-08T04:57:34;102619.03;;;7.29;100.00
60373;BME280;46216;52.220;5.134;2023-04-08T04:59:59;102620.25;;;7.19;100.00
60373;BME280;46216;52.220;5.134;2023-04-08T05:02:25;102622.34;;;7.08;100.00
60373;BME280;46216;52.220;5.134;2023-04-08T05:04:50;102625.31;;;6.97;100.00
60373;BME280;46216;52.220;5.134;2023-04-08T05:07:18;102620.34;;;6.86;100.00
60373;BME280;46216;52.220;5.134;2023-04-08T05:09:43;102625.09;;;6.74;100.00
60373;BME280;46216;52.220;5.134;2023-04-08T05:12:08;102620.13;;;6.61;100.00
60373;BME280;46216;52.220;5.134;2023-04-08T05:14:34;102622.06;;;6.56;100.00
60373;BME280;46216;52.220;5.134;2023-04-08T05:16:59;102625.03;;;6.44;100.00
60373;BME280;46216;52.220;5.134;2023-04-08T05:19:25;102633.13;;;6.38;100.00
60373;BME280;46216;52.220;5.134;2023-04-08T05:21:50;102627.97;;;6.33;100.00
60373;BME280;46216;52.220;5.134;2023-04-08T05:24:15;102637.84;;;6.27;100.00
60373;BME280;46216;52.220;5.134;2023-04-08T05:26:41;102647.72;;;6.20;100.00
60373;BME280;46216;52.220;5.134;2023-04-08T05:29:06;102634.56;;;6.17;100.00
60373;BME280;46216;52.220;5.134;2023-04-08T05:31:31;102633.03;;;6.08;100.00
60373;BME280;46216;52.220;5.134;2023-04-08T05:33:57;102644.56;;;6.06;100.00
60373;BME280;46216;52.220;5.134;2023-04-08T05:36:22;102644.63;;;6.03;100.00
60373;BME280;46216;52.220;5.134;2023-04-08T05:38:47;102656.06;;;6.03;100.00
60373;BME280;46216;52.220;5.134;2023-04-08T05:41:13;102650.78;;;6.03;100.00
60373;BME280;46216;52.220;5.134;2023-04-08T05:43:38;102654.28;;;6.05;100.00
60373;BME280;46216;52.220;5.134;2023-04-08T05:46:07;102652.63;;;6.00;100.00
60373;BME280;46216;52.220;5.134;2023-04-08T05:48:34;102660.56;;;6.01;100.00
60373;BME280;46216;52.220;5.134;2023-04-08T05:50:59;102663.28;;;5.98;100.00
60373;BME280;46216;52.220;5.134;2023-04-08T05:53:25;102666.00;;;5.93;100.00
60373;BME280;46216;52.220;5.134;2023-04-08T05:55:50;102675.81;;;5.88;100.00
60373;BME280;46216;52.220;5.134;2023-04-08T05:58:15;102672.25;;;5.91;100.00
60373;BME280;46216;52.220;5.134;2023-04-08T06:00:41;102676.63;;;5.90;100.00
60373;BME280;46216;52.220;5.134;2023-04-08T06:03:06;102675.78;;;5.90;100.00
60373;BME280;46216;52.220;5.134;2023-04-08T06:05:32;102678.47;;;5.87;100.00
60373;BME280;46216;52.220;5.134;2023-04-08T06:07:57;102674.03;;;5.89;100.00
60373;BME280;46216;52.220;5.134;2023-04-08T06:10:22;102673.09;;;5.91;100.00
60373;BME280;46216;52.220;5.134;2023-04-08T06:12:47;102675.72;;;5.93;100.00
60373;BME280;46216;52.220;5.134;2023-04-08T06:15:13;102681.00;;;5.95;100.00
60373;BME280;46216;52.220;5.134;2023-04-08T06:17:38;102679.22;;;5.95;100.00
60373;BME280;46216;52.220;5.134;2023-04-08T06:20:07;102679.22;;;5.95;100.00
60373;BME280;46216;52.220;5.134;2023-04-08T06:22:35;102688.78;;;6.01;100.00
60373;BME280;46216;52.220;5.134;2023-04-08T06:25:01;102682.69;;;5.97;100.00
60373;BME280;46216;52.220;5.134;2023-04-08T06:27:26;102685.31;;;5.99;100.00
60373;BME280;46216;52.220;5.134;2023-04-08T06:29:52;102688.03;;;5.94;100.00
60373;BME280;46216;52.220;5.134;2023-04-08T06:32:17;102691.41;;;6.02;100.00
60373;BME280;46216;52.220;5.134;2023-04-08T06:34:47;102699.28;;;6.05;100.00
60373;BME280;46216;52.220;5.134;2023-04-08T06:37:12;102701.78;;;6.11;100.00
60373;BME280;46216;52.220;5.134;2023-04-08T06:39:38;102701.78;;;6.11;100.00
60373;BME280;46216;52.220;5.134;2023-04-08T06:42:03;102712.31;;;6.13;100.00
60373;BME280;46216;52.220;5.134;2023-04-08T06:44:28;102709.66;;;6.13;100.00
60373;BME280;46216;52.220;5.134;2023-04-08T06:46:54;102710.47;;;6.16;100.00
60373;BME280;46216;52.220;5.134;2023-04-08T06:49:20;102709.44;;;6.22;100.00
60373;BME280;46216;52.220;5.134;2023-04-08T06:51:45;102708.50;;;6.25;100.00
60373;BME280;46216;52.220;5.134;2023-04-08T06:54:10;102709.31;;;6.27;100.00
60373;BME280;46216;52.220;5.134;2023-04-08T06:56:36;102711.84;;;6.33;100.00
60373;BME280;46216;52.220;5.134;2023-04-08T06:59:02;102704.81;;;6.30;100.00
60373;BME280;46216;52.220;5.134;2023-04-08T07:01:28;102712.56;;;6.39;100.00
60373;BME280;46216;52.220;5.134;2023-04-08T07:03:54;102717.69;;;6.46;100.00
60373;BME280;46216;52.220;5.134;2023-04-08T07:06:19;102715.06;;;6.46;100.00
60373;BME280;46216;52.220;5.134;2023-04-08T07:08:45;102725.38;;;6.56;100.00
60373;BME280;46216;52.220;5.134;2023-04-08T07:11:10;102723.53;;;6.58;100.00
60373;BME280;46216;52.220;5.134;2023-04-08T07:13:36;102717.28;;;6.61;100.00
60373;BME280;46216;52.220;5.134;2023-04-08T07:16:01;102720.72;;;6.66;100.00
60373;BME280;46216;52.220;5.134;2023-04-08T07:18:27;102720.50;;;6.72;100.00
60373;BME280;46216;52.220;5.134;2023-04-08T07:20:52;102716.00;;;6.76;100.00
60373;BME280;46216;52.220;5.134;2023-04-08T07:23:22;102723.72;;;6.85;100.00
60373;BME280;46216;52.220;5.134;2023-04-08T07:25:47;102726.28;;;6.88;100.00
60373;BME280;46216;52.220;5.134;2023-04-08T07:28:13;102726.94;;;6.96;100.00
60373;BME280;46216;52.220;5.134;2023-04-08T07:30:38;102731.00;;;7.09;100.00
60373;BME280;46216;52.220;5.134;2023-04-08T07:33:03;102730.81;;;7.16;100.00
60373;BME280;46216;52.220;5.134;2023-04-08T07:35:29;102729.81;;;7.21;100.00
60373;BME280;46216;52.220;5.134;2023-04-08T07:37:56;102733.94;;;7.30;100.00
60373;BME280;46216;52.220;5.134;2023-04-08T07:40:22;102732.13;;;7.32;100.00
60373;BME280;46216;52.220;5.134;2023-04-08T07:42:47;102736.31;;;7.41;100.00
60373;BME280;46216;52.220;5.134;2023-04-08T07:45:13;102736.22;;;7.44;100.00
60373;BME280;46216;52.220;5.134;2023-04-08T07:47:39;102736.91;;;7.50;100.00
60373;BME280;46216;52.220;5.134;2023-04-08T07:50:05;102733.19;;;7.57;100.00
60373;BME280;46216;52.220;5.134;2023-04-08T07:52:31;102739.97;;;7.66;100.00
60373;BME280;46216;52.220;5.134;2023-04-08T07:54:56;102743.50;;;7.67;100.00
60373;BME280;46216;52.220;5.134;2023-04-08T07:57:21;102741.34;;;7.79;100.00
60373;BME280;46216;52.220;5.134;2023-04-08T07:59:47;102743.84;;;7.84;100.00
60373;BME280;46216;52.220;5.134;2023-04-08T08:02:12;102745.41;;;7.91;100.00
60373;BME280;46216;52.220;5.134;2023-04-08T08:04:38;102740.75;;;7.98;100.00
60373;BME280;46216;52.220;5.134;2023-04-08T08:07:03;102744.84;;;8.10;100.00
60373;BME280;46216;52.220;5.134;2023-04-08T08:09:28;102745.44;;;8.18;100.00
60373;BME280;46216;52.220;5.134;2023-04-08T08:11:54;102744.41;;;8.23;100.00
60373;BME280;46216;52.220;5.134;2023-04-08T08:14:19;102749.50;;;8.29;100.00
60373;BME280;46216;52.220;5.134;2023-04-08T08:16:46;102745.00;;;8.32;100.00
60373;BME280;46216;52.220;5.134;2023-04-08T08:19:11;102738.59;;;8.39;100.00
60373;BME280;46216;52.220;5.134;2023-04-08T08:21:38;102741.22;;;8.40;100.00
60373;BME280;46216;52.220;5.134;2023-04-08T08:24:03;102762.28;;;8.46;100.00
60373;BME280;46216;52.220;5.134;2023-04-08T08:26:29;102743.63;;;8.48;100.00
60373;BME280;46216;52.220;5.134;2023-04-08T08:28:54;102738.03;;;8.56;100.00
60373;BME280;46216;52.220;5.134;2023-04-08T08:31:20;102752.06;;;8.61;100.00
60373;BME280;46216;52.220;5.134;2023-04-08T08:33:45;102747.66;;;8.60;100.00
60373;BME280;46216;52.220;5.134;2023-04-08T08:36:11;102754.53;;;8.65;100.00
60373;BME280;46216;52.220;5.134;2023-04-08T08:38:37;102750.91;;;8.68;100.00
60373;BME280;46216;52.220;5.134;2023-04-08T08:41:03;102745.28;;;8.77;100.00
60373;BME280;46216;52.220;5.134;2023-04-08T08:43:29;102754.47;;;8.93;100.00
60373;BME280;46216;52.220;5.134;2023-04-08T08:45:57;102743.47;;;9.04;100.00
60373;BME280;46216;52.220;5.134;2023-04-08T08:48:23;102751.81;;;9.18;100.00
60373;BME280;46216;52.220;5.134;2023-04-08T08:50:48;102747.03;;;9.28;100.00
60373;BME280;46216;52.220;5.134;2023-04-08T08:53:14;102746.53;;;9.40;100.00
60373;BME280;46216;52.220;5.134;2023-04-08T08:55:39;102742.78;;;9.46;100.00
60373;BME280;46216;52.220;5.134;2023-04-08T08:58:05;102747.72;;;9.57;100.00
60373;BME280;46216;52.220;5.134;2023-04-08T09:00:36;102751.94;;;9.62;100.00
60373;BME280;46216;52.220;5.134;2023-04-08T09:03:14;102758.53;;;9.76;100.00
60373;BME280;46216;52.220;5.134;2023-04-08T09:05:57;102755.56;;;9.83;100.00
60373;BME280;46216;52.220;5.134;2023-04-08T09:10:48;102754.59;;;9.86;100.00
60373;BME280;46216;52.220;5.134;2023-04-08T09:13:13;102762.16;;;9.97;100.00
60373;BME280;46216;52.220;5.134;2023-04-08T09:16:05;102755.00;;;9.99;100.00
60373;BME280;46216;52.220;5.134;2023-04-08T09:18:32;102753.25;;;10.19;100.00
60373;BME280;46216;52.220;5.134;2023-04-08T09:21:04;102754.69;;;10.28;100.00
60373;BME280;46216;52.220;5.134;2023-04-08T09:23:44;102749.97;;;10.35;100.00
60373;BME280;46216;52.220;5.134;2023-04-08T09:26:14;102756.50;;;10.50;100.00
60373;BME280;46216;52.220;5.134;2023-04-08T09:28:41;102740.78;;;10.64;100.00
60373;BME280;46216;52.220;5.134;2023-04-08T09:31:25;102751.72;;;10.78;100.00
60373;BME280;46216;52.220;5.134;2023-04-08T09:33:54;102748.53;;;10.91;100.00
60373;BME280;46216;52.220;5.134;2023-04-08T09:36:20;102747.38;;;10.96;100.00
60373;BME280;46216;52.220;5.134;2023-04-08T09:38:45;102749.06;;;10.99;100.00
60373;BME280;46216;52.220;5.134;2023-04-08T09:41:21;102745.31;;;11.03;100.00
60373;BME280;46216;52.220;5.134;2023-04-08T09:43:50;102745.38;;;11.22;100.00
60373;BME280;46216;52.220;5.134;2023-04-08T09:46:35;102748.19;;;11.37;100.00
60373;BME280;46216;52.220;5.134;2023-04-08T09:49:06;102750.31;;;11.50;100.00
60373;BME280;46216;52.220;5.134;2023-04-08T09:51:35;102754.97;;;11.65;100.00
60373;BME280;46216;52.220;5.134;2023-04-08T09:54:11;102752.50;;;11.79;100.00
60373;BME280;46216;52.220;5.134;2023-04-08T09:56:46;102755.25;;;11.97;100.00
60373;BME280;46216;52.220;5.134;2023-04-08T09:59:14;102752.50;;;12.17;100.00
60373;BME280;46216;52.220;5.134;2023-04-08T10:01:49;102753.72;;;12.46;100.00
60373;BME280;46216;52.220;5.134;2023-04-08T10:04:19;102743.25;;;12.59;100.00
60373;BME280;46216;52.220;5.134;2023-04-08T10:06:51;102731.84;;;12.73;100.00
60373;BME280;46216;52.220;5.134;2023-04-08T10:09:20;102729.81;;;12.95;100.00
60373;BME280;46216;52.220;5.134;2023-04-08T10:11:46;102728.34;;;13.23;100.00
60373;BME280;46216;52.220;5.134;2023-04-08T10:14:12;102737.69;;;13.49;100.00
60373;BME280;46216;52.220;5.134;2023-04-08T10:16:37;102740.78;;;13.57;100.00
60373;BME280;46216;52.220;5.134;2023-04-08T10:19:34;102728.00;;;13.62;100.00
60373;BME280;46216;52.220;5.134;2023-04-08T10:22:01;102731.91;;;13.72;100.00
60373;BME280;46216;52.220;5.134;2023-04-08T10:24:26;102731.91;;;13.88;100.00
60373;BME280;46216;52.220;5.134;2023-04-08T10:26:52;102730.53;;;13.97;100.00
60373;BME280;46216;52.220;5.134;2023-04-08T10:31:51;102730.06;;;14.20;100.00
60373;BME280;46216;52.220;5.134;2023-04-08T10:34:22;102721.13;;;14.36;100.00
60373;BME280;46216;52.220;5.134;2023-04-08T10:36:49;102722.94;;;14.51;100.00
60373;BME280;46216;52.220;5.134;2023-04-08T10:39:15;102713.63;;;14.87;100.00
60373;BME280;46216;52.220;5.134;2023-04-08T10:41:48;102712.69;;;15.17;100.00
60373;BME280;46216;52.220;5.134;2023-04-08T10:44:14;102717.31;;;15.29;100.00
60373;BME280;46216;52.220;5.134;2023-04-08T10:46:40;102707.78;;;15.37;100.00
60373;BME280;46216;52.220;5.134;2023-04-08T10:49:06;102706.03;;;15.65;100.00
60373;BME280;46216;52.220;5.134;2023-04-08T10:51:33;102705.69;;;15.98;100.00
60373;BME280;46216;52.220;5.134;2023-04-08T10:54:10;102701.16;;;15.99;100.00
60373;BME280;46216;52.220;5.134;2023-04-08T10:56:51;102692.75;;;16.18;100.00
60373;BME280;46216;52.220;5.134;2023-04-08T10:59:28;102698.72;;;16.36;100.00
60373;BME280;46216;52.220;5.134;2023-04-08T11:01:53;102695.28;;;16.46;100.00
60373;BME280;46216;52.220;5.134;2023-04-08T11:04:19;102701.56;;;16.60;100.00
60373;BME280;46216;52.220;5.134;2023-04-08T11:06:47;102705.25;;;16.71;100.00
60373;BME280;46216;52.220;5.134;2023-04-08T11:09:14;102702.25;;;17.01;100.00
60373;BME280;46216;52.220;5.134;2023-04-08T11:11:43;102700.97;;;17.07;100.00
60373;BME280;46216;52.220;5.134;2023-04-08T11:14:08;102695.03;;;17.15;100.00
60373;BME280;46216;52.220;5.134;2023-04-08T11:16:36;102700.28;;;17.42;100.00
60373;BME280;46216;52.220;5.134;2023-04-08T11:19:03;102702.34;;;17.38;100.00
60373;BME280;46216;52.220;5.134;2023-04-08T11:21:34;102702.34;;;17.38;100.00
60373;BME280;46216;52.220;5.134;2023-04-08T11:23:59;102700.63;;;17.50;98.47
60373;BME280;46216;52.220;5.134;2023-04-08T11:26:25;102696.66;;;17.30;100.00
60373;BME280;46216;52.220;5.134;2023-04-08T11:28:52;102692.72;;;17.60;100.00
60373;BME280;46216;52.220;5.134;2023-04-08T11:31:19;102695.06;;;17.77;100.00
60373;BME280;46216;52.220;5.134;2023-04-08T11:33:47;102693.31;;;17.76;98.76
60373;BME280;46216;52.220;5.134;2023-04-08T11:36:13;102697.19;;;17.72;95.68
60373;BME280;46216;52.220;5.134;2023-04-08T11:38:39;102695.84;;;17.66;96.59
60373;BME280;46216;52.220;5.134;2023-04-08T11:41:08;102686.34;;;17.61;95.04
60373;BME280;46216;52.220;5.134;2023-04-08T11:43:34;102688.03;;;17.74;95.92
60373;BME280;46216;52.220;5.134;2023-04-08T11:46:08;102689.72;;;17.88;93.37
60373;BME280;46216;52.220;5.134;2023-04-08T11:48:34;102696.56;;;17.81;93.31
60373;BME280;46216;52.220;5.134;2023-04-08T11:51:05;102696.44;;;18.07;93.79
60373;BME280;46216;52.220;5.134;2023-04-08T11:53:35;102689.88;;;18.11;92.50
60373;BME280;46216;52.220;5.134;2023-04-08T11:56:18;102696.22;;;18.10;93.03
60373;BME280;46216;52.220;5.134;2023-04-08T11:58:44;102691.56;;;18.12;94.08
60373;BME280;46216;52.220;5.134;2023-04-08T12:01:10;102692.56;;;18.11;94.86
60373;BME280;46216;52.220;5.134;2023-04-08T12:03:35;102697.97;;;18.11;95.50
60373;BME280;46216;52.220;5.134;2023-04-08T12:06:01;102701.91;;;17.94;95.32
60373;BME280;46216;52.220;5.134;2023-04-08T12:08:26;102699.84;;;18.22;99.73
60373;BME280;46216;52.220;5.134;2023-04-08T12:10:52;102703.66;;;18.30;98.00
60373;BME280;46216;52.220;5.134;2023-04-08T12:13:17;102692.88;;;18.30;96.72
60373;BME280;46216;52.220;5.134;2023-04-08T12:15:43;102691.38;;;18.26;97.37
60373;BME280;46216;52.220;5.134;2023-04-08T12:18:08;102704.38;;;18.21;99.62
60373;BME280;46216;52.220;5.134;2023-04-08T12:20:34;102700.13;;;18.06;100.00
60373;BME280;46216;52.220;5.134;2023-04-08T12:22:59;102706.06;;;18.11;100.00
60373;BME280;46216;52.220;5.134;2023-04-08T12:25:24;102693.28;;;18.13;100.00
60373;BME280;46216;52.220;5.134;2023-04-08T12:27:50;102690.13;;;18.19;100.00
60373;BME280;46216;52.220;5.134;2023-04-08T12:30:15;102697.56;;;18.39;100.00
60373;BME280;46216;52.220;5.134;2023-04-08T12:32:40;102698.44;;;18.40;100.00
60373;BME280;46216;52.220;5.134;2023-04-08T12:35:07;102700.69;;;18.22;97.51
60373;BME280;46216;52.220;5.134;2023-04-08T12:37:32;102694.66;;;18.18;96.57
60373;BME280;46216;52.220;5.134;2023-04-08T12:39:58;102691.78;;;18.33;98.66
60373;BME280;46216;52.220;5.134;2023-04-08T12:42:23;102686.38;;;18.33;96.17
60373;BME280;46216;52.220;5.134;2023-04-08T12:44:48;102685.31;;;18.47;96.51
60373;BME280;46216;52.220;5.134;2023-04-08T12:47:13;102684.72;;;18.54;91.19
60373;BME280;46216;52.220;5.134;2023-04-08T12:49:39;102680.44;;;18.52;89.29
60373;BME280;46216;52.220;5.134;2023-04-08T12:52:04;102690.13;;;18.54;88.62
60373;BME280;46216;52.220;5.134;2023-04-08T12:54:30;102687.03;;;18.48;88.00
60373;BME280;46216;52.220;5.134;2023-04-08T12:56:56;102694.31;;;18.23;82.26